Time;durP1;ratioP1;P1;durP2;ratioP2;P2;SDS_P1;SDS_P2;PMS_P1;PMS_P2;Temp;Humidity;BMP_temperature;BMP_pressure;BME280_temperature;BME280_humidity;BME280_pressure;Samples;Min_cycle;Max_cycle;Signal;HPM_P1;HPM_P2
2022/06/23 00:02:20;;;;;;;8.80;2.55;;;21.20;1.00;;;;;;5093198;28;20176;-70
2022/06/23 00:04:48;;;;;;;4.97;2.53;;;21.20;93.60;;;;;;5092668;28;20697;-70
2022/06/23 00:07:17;;;;;;;5.82;2.35;;;21.10;76.00;;;;;;5093249;28;20686;-70
2022/06/23 00:09:45;;;;;;;5.10;2.28;;;21.10;1.00;;;;;;5093347;28;20184;-71
2022/06/23 00:12:20;;;;;;;2.92;2.47;;;21.00;99.90;;;;;;5093261;28;20190;-70
2022/06/23 00:14:48;;;;;;;3.97;2.65;;;21.00;1.00;;;;;;5093330;28;20167;-70
2022/06/23 00:17:26;;;;;;;4.90;2.72;;;21.00;99.90;;;;;;5093340;28;20491;-69
2022/06/23 00:19:53;;;;;;;2.40;2.20;;;21.00;99.90;;;;;;5093068;28;20250;-69
2022/06/23 00:22:22;;;;;;;3.38;2.55;;;21.00;1.00;;;;;;5093146;28;20535;-69
2022/06/23 00:24:48;;;;;;;8.25;2.80;;;20.90;99.90;;;;;;5093141;28;20290;-70
2022/06/23 00:27:17;;;;;;;5.60;2.67;;;20.90;1.00;;;;;;5093333;28;20198;-69
2022/06/23 00:29:47;;;;;;;4.97;2.60;;;20.90;1.00;;;;;;5093067;28;20183;-69
2022/06/23 00:32:14;;;;;;;4.95;2.95;;;20.80;1.00;;;;;;5091759;28;20180;-69
2022/06/23 00:34:43;;;;;;;2.42;2.22;;;20.80;1.00;;;;;;5092945;28;20206;-69
2022/06/23 00:37:15;;;;;;;5.28;2.55;;;20.80;1.00;;;;;;5093135;28;20183;-69
2022/06/23 00:40:10;;;;;;;4.80;2.78;;;20.70;1.00;;;;;;5093211;28;20255;-69
2022/06/23 00:42:53;;;;;;;3.95;2.50;;;20.70;1.00;;;;;;5092874;28;20171;-70
2022/06/23 00:45:53;;;;;;;5.75;2.75;;;20.70;1.00;;;;;;5093099;28;20211;-69
2022/06/23 00:48:29;;;;;;;2.77;2.57;;;20.60;99.90;;;;;;5092694;28;20176;-69
2022/06/23 00:51:23;;;;;;;3.63;2.70;;;20.60;1.00;;;;;;5092878;28;20171;-69
2022/06/23 00:53:57;;;;;;;4.10;2.70;;;20.60;99.90;;;;;;5092973;28;20167;-69
2022/06/23 00:56:47;;;;;;;3.58;2.80;;;20.60;99.90;;;;;;5093015;28;20245;-69
2022/06/23 00:59:32;;;;;;;3.28;2.95;;;20.60;99.90;;;;;;5092756;28;20210;-69
2022/06/23 01:02:04;;;;;;;4.35;2.50;;;20.50;1.00;;;;;;5092904;28;20160;-69
2022/06/23 01:04:46;;;;;;;2.60;2.33;;;20.50;71.40;;;;;;5092144;28;20223;-70
2022/06/23 01:07:26;;;;;;;5.45;2.75;;;20.50;99.90;;;;;;5093231;28;20179;-69
2022/06/23 01:10:18;;;;;;;6.60;3.58;;;20.40;99.90;;;;;;5096880;28;20168;-69
2022/06/23 01:13:07;;;;;;;5.68;3.22;;;20.50;1.00;;;;;;5058343;28;20184;-69
2022/06/23 01:15:33;;;;;;;5.18;3.83;;;20.50;99.90;;;;;;5096545;28;20211;-69
2022/06/23 01:18:36;;;;;;;4.60;3.47;;;20.50;99.90;;;;;;5095980;28;20658;-69
2022/06/23 01:21:44;;;;;;;3.75;3.13;;;20.60;1.00;;;;;;5096411;28;20632;-69
2022/06/23 01:24:18;;;;;;;2.78;2.58;;;20.60;1.00;;;;;;5096461;28;20164;-69
2022/06/23 01:27:14;;;;;;;3.38;2.80;;;20.50;1.00;;;;;;5096330;28;20171;-69
2022/06/23 01:30:05;;;;;;;3.65;2.72;;;20.50;1.00;;;;;;5096359;28;20187;-69
2022/06/23 01:33:13;;;;;;;3.45;2.72;;;20.40;99.90;;;;;;5095688;28;20168;-69
2022/06/23 01:35:51;;;;;;;5.30;2.80;;;20.40;99.90;;;;;;5056638;28;20262;-69
2022/06/23 01:38:46;;;;;;;2.90;2.70;;;20.40;1.00;;;;;;5096116;28;20217;-69
2022/06/23 01:41:37;;;;;;;3.42;2.80;;;20.30;1.00;;;;;;5024083;28;20265;-68
2022/06/23 01:44:40;;;;;;;3.00;2.80;;;20.30;1.00;;;;;;5095158;28;20545;-68
2022/06/23 01:47:40;;;;;;;6.93;3.53;;;20.20;1.00;;;;;;5095643;28;20167;-69
2022/06/23 01:50:31;;;;;;;6.88;3.50;;;20.30;11.90;;;;;;5096222;28;20175;-70
2022/06/23 01:53:18;;;;;;;3.72;3.13;;;20.30;58.30;;;;;;5096003;28;20168;-69
2022/06/23 01:56:28;;;;;;;5.00;3.88;;;20.30;1.00;;;;;;5095769;28;20180;-69
2022/06/23 01:59:02;;;;;;;6.57;4.10;;;20.40;1.00;;;;;;5064369;28;20230;-69
2022/06/23 02:01:50;;;;;;;5.70;4.00;;;20.40;1.00;;;;;;5095342;28;20164;-69
2022/06/23 02:04:45;;;;;;;5.00;2.95;;;20.40;1.00;;;;;;5095173;28;20227;-69
2022/06/23 02:07:21;;;;;;;3.45;3.15;;;20.50;99.90;;;;;;5095718;28;20184;-69
2022/06/23 02:09:53;;;;;;;4.38;2.80;;;20.40;99.90;;;;;;5095737;28;20267;-69
2022/06/23 02:12:40;;;;;;;3.95;2.70;;;20.40;1.00;;;;;;5095381;28;20179;-69
2022/06/23 02:15:26;;;;;;;7.30;3.15;;;20.50;1.00;;;;;;5095611;28;20168;-69
2022/06/23 02:18:06;;;;;;;4.43;2.85;;;20.50;1.00;;;;;;5095329;28;20171;-69
2022/06/23 02:20:43;;;;;;;5.90;2.72;;;20.40;2.60;;;;;;5095273;28;20195;-69
2022/06/23 02:23:30;;;;;;;2.90;2.60;;;20.40;99.90;;;;;;5095254;28;20163;-69
2022/06/23 02:26:08;;;;;;;3.10;2.78;;;20.30;99.90;;;;;;5095238;28;20211;-69
2022/06/23 02:28:44;;;;;;;4.20;2.67;;;20.10;1.00;;;;;;5095106;28;20175;-69
2022/06/23 02:31:31;;;;;;;2.90;2.60;;;19.90;39.90;;;;;;5094748;28;20179;-69
2022/06/23 02:34:10;;;;;;;3.45;2.80;;;19.90;1.00;;;;;;5094971;28;20254;-68
2022/06/23 02:36:42;;;;;;;3.20;2.90;;;19.90;99.90;;;;;;5095054;28;20176;-68
2022/06/23 02:39:17;;;;;;;3.13;2.67;;;19.90;1.00;;;;;;5094915;28;20175;-68
2022/06/23 02:41:54;;;;;;;3.10;2.90;;;19.90;1.00;;;;;;5094788;28;20175;-70
2022/06/23 02:44:39;;;;;;;7.72;2.83;;;19.90;1.00;;;;;;5094175;28;20317;-69
2022/06/23 02:47:10;;;;;;;3.93;2.80;;;19.80;1.00;;;;;;5094636;28;20274;-69
2022/06/23 02:49:47;;;;;;;3.85;2.95;;;19.80;99.90;;;;;;5094520;28;20194;-69
2022/06/23 02:52:39;;;;;;;3.45;2.90;;;19.80;99.90;;;;;;5094601;28;20187;-69
2022/06/23 02:55:49;;;;;;;5.00;3.13;;;19.80;1.00;;;;;;5056860;28;20259;-69
2022/06/23 02:58:15;;;;;;;3.03;2.80;;;19.90;99.90;;;;;;5094628;28;20180;-69
2022/06/23 03:00:49;;;;;;;3.35;3.05;;;19.90;1.00;;;;;;5094162;28;20571;-69
2022/06/23 03:03:35;;;;;;;7.20;3.55;;;19.80;99.90;;;;;;5094375;28;20175;-69
2022/06/23 03:06:04;;;;;;;5.18;3.10;;;19.90;99.90;;;;;;5094054;28;20227;-69
2022/06/23 03:08:35;;;;;;;4.35;3.08;;;19.90;99.90;;;;;;5094243;28;20517;-68
2022/06/23 03:11:18;;;;;;;3.30;3.00;;;19.90;99.90;;;;;;5094241;28;20172;-69
2022/06/23 03:13:55;;;;;;;3.60;3.22;;;19.80;1.00;;;;;;5093678;28;20203;-68
2022/06/23 03:16:43;;;;;;;4.03;3.00;;;19.70;99.90;;;;;;5094356;28;20163;-69
2022/06/23 03:19:17;;;;;;;5.37;3.23;;;19.70;1.00;;;;;;5092735;28;20168;-68
2022/06/23 03:21:54;;;;;;;6.77;3.47;;;19.70;99.90;;;;;;5093775;28;20490;-69
2022/06/23 03:24:27;;;;;;;3.93;3.53;;;19.70;99.90;;;;;;5093715;28;20163;-69
2022/06/23 03:27:16;;;;;;;4.90;3.50;;;19.60;99.90;;;;;;5094250;28;20180;-69
2022/06/23 03:29:50;;;;;;;3.93;3.50;;;19.70;1.00;;;;;;5093377;28;20168;-69
2022/06/23 03:32:16;;;;;;;4.60;3.00;;;19.70;80.60;;;;;;5093646;28;20174;-69
2022/06/23 03:35:14;;;;;;;4.83;3.10;;;19.70;1.00;;;;;;5093622;28;20664;-69
2022/06/23 03:37:46;;;;;;;4.60;3.43;;;19.70;99.90;;;;;;5092916;28;20176;-68
2022/06/23 03:43:36;;;;;;;5.00;3.40;;;19.70;99.90;;;;;;5093267;28;20868;-69
2022/06/23 03:46:18;;;;;;;6.30;3.87;;;19.70;99.90;;;;;;5093199;28;20207;-69
2022/06/23 03:49:42;;;;;;;4.93;3.80;;;19.80;1.00;;;;;;5093522;28;20217;-68
2022/06/23 03:52:22;;;;;;;4.80;3.00;;;19.80;99.90;;;;;;5012289;28;20181;-69
2022/06/23 03:54:57;;;;;;;4.27;3.67;;;19.80;1.00;;;;;;5030902;28;20202;-68
2022/06/23 03:57:32;;;;;;;10.37;3.57;;;19.80;1.00;;;;;;5030264;28;20895;-68
2022/06/23 04:00:04;;;;;;;3.80;3.40;;;19.80;99.90;;;;;;5031032;28;20177;-67
2022/06/23 04:02:38;;;;;;;3.97;3.33;;;19.90;1.00;;;;;;5030760;28;20188;-68
2022/06/23 04:05:04;;;;;;;5.83;3.40;;;20.20;99.90;;;;;;5030305;28;20229;-69
2022/06/23 04:07:29;;;;;;;5.45;3.53;;;20.50;1.00;;;;;;5030697;28;20193;-69
2022/06/23 04:10:11;;;;;;;3.70;3.38;;;20.80;99.90;;;;;;5030684;28;20320;-70
2022/06/23 04:12:42;;;;;;;5.57;3.67;;;21.20;1.00;;;;;;5030289;28;20275;-69
2022/06/23 04:15:24;;;;;;;5.60;3.40;;;21.60;1.00;;;;;;5030609;28;20177;-69
2022/06/23 04:17:56;;;;;;;4.20;3.80;;;22.00;99.90;;;;;;5030826;28;20216;-70
2022/06/23 04:20:30;;;;;;;4.50;3.70;;;22.40;1.00;;;;;;5030959;28;20260;-69
2022/06/23 04:23:12;;;;;;;4.05;3.70;;;22.80;1.00;;;;;;5063453;28;20176;-69
2022/06/23 04:25:38;;;;;;;10.10;4.10;;;23.30;99.90;;;;;;5092843;28;20294;-70
2022/06/23 04:28:04;;;;;;;8.50;3.70;;;23.80;1.00;;;;;;5092386;28;20198;-70
2022/06/23 04:30:35;;;;;;;3.85;3.40;;;24.30;1.00;;;;;;5092880;28;20196;-70
2022/06/23 04:33:04;;;;;;;6.32;3.90;;;24.60;1.00;;;;;;5092721;28;20176;-69
2022/06/23 04:35:33;;;;;;;5.65;3.95;;;25.20;1.00;;;;;;5092706;28;20247;-69
2022/06/23 04:38:10;;;;;;;4.63;3.63;;;25.20;1.00;;;;;;5092581;28;20172;-69
2022/06/23 04:40:41;;;;;;;11.07;4.30;;;25.60;99.90;;;;;;5092044;28;20167;-69
2022/06/23 04:43:32;;;;;;;8.38;3.75;;;26.00;99.90;;;;;;5095959;28;20161;-70
2022/06/23 04:46:16;;;;;;;12.35;4.07;;;26.60;99.90;;;;;;5096397;28;20210;-70
2022/06/23 04:49:01;;;;;;;11.25;4.13;;;27.00;99.90;;;;;;5096671;28;20271;-71
2022/06/23 04:51:40;;;;;;;10.05;4.32;;;27.40;99.90;;;;;;5096626;28;20188;-71
2022/06/23 04:54:09;;;;;;;10.82;3.78;;;27.60;99.90;;;;;;5096163;28;20631;-71
2022/06/23 04:56:48;;;;;;;7.72;4.32;;;27.20;99.90;;;;;;5096042;28;20194;-71
2022/06/23 04:59:24;;;;;;;11.80;4.10;;;26.60;99.90;;;;;;5095858;28;20191;-70
2022/06/23 05:01:53;;;;;;;9.43;4.00;;;26.60;99.90;;;;;;5095823;28;20175;-70
2022/06/23 05:04:29;;;;;;;8.77;4.05;;;27.70;99.90;;;;;;5095916;28;20219;-71
2022/06/23 05:06:59;;;;;;;12.70;4.07;;;28.00;99.90;;;;;;5096344;28;20172;-71
2022/06/23 05:09:32;;;;;;;13.82;4.63;;;29.20;99.90;;;;;;5095512;28;20224;-71
2022/06/23 05:12:01;;;;;;;12.73;4.38;;;29.70;99.90;;;;;;5095941;28;20176;-71
2022/06/23 05:14:42;;;;;;;8.02;4.22;;;30.60;99.90;;;;;;5095919;28;20232;-71
2022/06/23 05:17:21;;;;;;;7.88;4.93;;;31.20;99.90;;;;;;5094519;28;20178;-71
2022/06/23 05:19:53;;;;;;;13.23;4.57;;;31.10;99.90;;;;;;5095737;28;20562;-71
2022/06/23 05:22:39;;;;;;;9.00;4.97;;;31.40;99.90;;;;;;5095319;28;20168;-71
2022/06/23 05:25:29;;;;;;;8.75;4.70;;;30.40;99.90;;;;;;5095233;28;20212;-72
2022/06/23 05:27:55;;;;;;;8.63;5.30;;;29.40;99.90;;;;;;5095057;28;20176;-71
2022/06/23 05:30:28;;;;;;;8.32;5.15;;;29.50;99.90;;;;;;5094046;28;20217;-71
2022/06/23 05:33:11;;;;;;;7.03;5.32;;;29.40;99.90;;;;;;5094796;28;20627;-71
2022/06/23 05:35:42;;;;;;;8.07;5.57;;;29.90;99.90;;;;;;5094784;28;20172;-71
2022/06/23 05:38:24;;;;;;;8.18;5.47;;;31.20;99.90;;;;;;5095170;28;20167;-71
2022/06/23 05:40:58;;;;;;;8.90;5.50;;;31.60;99.90;;;;;;5094891;28;20635;-71
2022/06/23 05:43:26;;;;;;;11.45;5.50;;;32.30;99.90;;;;;;5095044;28;20182;-72
2022/06/23 05:45:57;;;;;;;8.23;5.38;;;32.20;99.90;;;;;;5094831;28;20245;-72
2022/06/23 05:48:43;;;;;;;8.18;5.85;;;32.90;99.90;;;;;;5094820;28;20747;-71
2022/06/23 05:51:21;;;;;;;6.63;5.55;;;33.10;99.90;;;;;;5094399;28;20168;-72
2022/06/23 05:53:58;;;;;;;10.73;5.38;;;32.60;99.90;;;;;;5093763;28;20164;-72
2022/06/23 05:56:43;;;;;;;12.10;6.05;;;32.30;99.90;;;;;;5094091;28;20164;-72
2022/06/23 05:59:15;;;;;;;10.88;6.88;;;32.80;99.90;;;;;;5094002;28;20195;-71
2022/06/23 06:01:57;;;;;;;13.30;6.25;;;32.20;99.90;;;;;;5094689;28;20172;-70
2022/06/23 06:04:25;;;;;;;12.60;5.80;;;32.30;99.90;;;;;;5093941;28;20775;-72
2022/06/23 06:06:50;;;;;;;12.95;6.28;;;32.40;99.90;;;;;;5093862;28;20172;-71
2022/06/23 06:09:37;;;;;;;8.35;6.10;;;31.70;99.90;;;;;;5094287;28;20187;-70
2022/06/23 06:12:13;;;;;;;11.35;5.93;;;31.70;99.90;;;;;;5094174;28;20191;-71
2022/06/23 06:14:42;;;;;;;9.30;6.10;;;32.00;99.90;;;;;;5093647;28;20167;-71
2022/06/23 06:17:19;;;;;;;8.68;5.78;;;32.80;99.90;;;;;;5094223;28;20175;-71
2022/06/23 06:19:46;;;;;;;9.07;5.55;;;32.90;99.90;;;;;;5094296;28;20203;-71
2022/06/23 06:22:40;;;;;;;7.65;6.10;;;32.90;99.90;;;;;;5093153;28;20172;-72
2022/06/23 06:25:14;;;;;;;10.43;6.35;;;32.60;99.90;;;;;;5064668;28;20222;-72
2022/06/23 06:27:39;;;;;;;9.18;6.28;;;32.20;99.90;;;;;;5094239;28;20187;-72
2022/06/23 06:30:09;;;;;;;9.57;6.32;;;32.60;99.90;;;;;;5093427;28;20207;-73
2022/06/23 06:32:39;;;;;;;13.40;6.50;;;32.30;99.90;;;;;;5093704;28;20271;-72
2022/06/23 06:35:41;;;;;;;11.30;7.45;;;32.50;99.90;;;;;;5094071;28;20175;-72
2022/06/23 06:38:15;;;;;;;11.20;6.70;;;33.00;99.90;;;;;;5092362;28;20307;-72
2022/06/23 06:40:46;;;;;;;14.90;7.40;;;33.90;99.90;;;;;;5093502;28;20190;-72
2022/06/23 06:43:15;;;;;;;10.20;6.40;;;34.50;99.90;;;;;;5093487;28;20168;-72
2022/06/23 06:45:41;;;;;;;9.18;6.35;;;34.90;99.90;;;;;;5093592;28;20256;-72
2022/06/23 06:48:23;;;;;;;9.95;5.90;;;35.50;99.90;;;;;;5093411;28;20168;-72
2022/06/23 06:50:53;;;;;;;11.40;6.43;;;35.80;99.90;;;;;;5092262;28;20233;-72
2022/06/23 06:53:31;;;;;;;10.15;6.65;;;35.00;99.90;;;;;;5093716;28;20166;-72
2022/06/23 06:56:04;;;;;;;12.75;6.53;;;34.60;99.90;;;;;;5092779;28;20175;-73
2022/06/23 06:58:41;;;;;;;11.95;6.53;;;35.90;99.90;;;;;;5093271;28;20294;-73
2022/06/23 07:01:20;;;;;;;17.67;7.05;;;35.90;99.90;;;;;;5093277;28;20178;-72
2022/06/23 07:03:48;;;;;;;12.13;6.80;;;36.80;99.90;;;;;;5093041;28;20179;-72
2022/06/23 07:06:32;;;;;;;9.93;6.47;;;37.10;99.90;;;;;;5091148;28;20636;-72
2022/06/23 07:09:21;;;;;;;13.85;6.43;;;36.70;99.90;;;;;;5093240;28;20159;-72
2022/06/23 07:12:00;;;;;;;13.65;7.60;;;37.10;99.90;;;;;;5093001;28;20549;-72
2022/06/23 07:14:26;;;;;;;8.25;6.10;;;37.40;99.90;;;;;;5092835;28;20203;-72
2022/06/23 07:17:04;;;;;;;10.07;6.43;;;36.80;99.90;;;;;;5093574;28;20643;-72
2022/06/23 07:19:35;;;;;;;11.20;6.75;;;35.50;99.90;;;;;;5093171;28;20176;-72
2022/06/23 07:22:20;;;;;;;8.35;6.43;;;34.40;99.90;;;;;;5093000;28;20258;-72
2022/06/23 07:24:48;;;;;;;11.52;6.78;;;34.50;99.90;;;;;;5093008;28;20196;-72
2022/06/23 07:27:33;;;;;;;11.98;6.80;;;34.80;99.90;;;;;;5092566;28;20283;-72
2022/06/23 07:30:06;;;;;;;14.43;6.60;;;35.30;99.90;;;;;;5093219;28;20292;-72
2022/06/23 07:32:47;;;;;;;11.90;6.72;;;35.70;99.90;;;;;;5093089;28;20611;-71
2022/06/23 07:35:34;;;;;;;14.57;7.20;;;34.60;99.90;;;;;;5093136;28;20531;-71
2022/06/23 07:38:14;;;;;;;10.85;7.03;;;33.40;99.90;;;;;;5092798;28;20160;-71
2022/06/23 07:40:51;;;;;;;12.15;6.40;;;32.40;99.90;;;;;;5073608;28;20190;-71
2022/06/23 07:43:31;;;;;;;10.07;6.75;;;33.00;99.90;;;;;;5084500;28;20213;-73
2022/06/23 07:45:59;;;;;;;11.80;6.90;;;33.80;99.90;;;;;;5083671;28;20227;-73
2022/06/23 07:48:27;;;;;;;10.10;6.68;;;34.90;99.90;;;;;;5072033;28;20604;-71
2022/06/23 07:50:54;;;;;;;9.65;7.18;;;33.50;99.90;;;;;;5102739;28;20212;-71
2022/06/23 07:53:23;;;;;;;8.80;6.72;;;32.90;99.90;;;;;;5112618;28;20159;-70
2022/06/23 07:55:50;;;;;;;7.70;7.00;;;31.10;1.00;;;;;;5111412;28;20190;-70
2022/06/23 07:58:21;;;;;;;8.45;7.07;;;30.20;99.90;;;;;;5092463;28;20184;-71
2022/06/23 08:00:51;;;;;;;17.00;8.02;;;29.50;1.00;;;;;;5081022;28;20175;-71
2022/06/23 08:03:34;;;;;;;11.35;7.43;;;29.40;1.00;;;;;;5083658;28;20260;-71
2022/06/23 08:06:04;;;;;;;11.02;7.28;;;29.30;1.00;;;;;;5081625;28;20234;-71
2022/06/23 08:08:33;;;;;;;9.05;7.40;;;30.60;99.90;;;;;;5074734;28;20221;-71
2022/06/23 08:13:55;;;;;;;10.07;7.20;;;30.70;99.90;;;;;;5092113;28;20174;-71
2022/06/23 08:19:24;;;;;;;13.52;7.05;;;32.10;1.00;;;;;;5091152;28;20260;-70
2022/06/23 08:22:01;;;;;;;8.55;6.55;;;31.80;1.00;;;;;;5079206;28;20174;-70
2022/06/23 08:24:27;;;;;;;7.72;7.00;;;32.00;1.00;;;;;;5092326;28;20175;-70
2022/06/23 08:27:01;;;;;;;11.27;7.28;;;31.50;1.00;;;;;;5092670;28;20244;-70
2022/06/23 08:29:47;;;;;;;7.60;6.78;;;31.00;99.90;;;;;;5091882;28;20159;-69
2022/06/23 08:32:14;;;;;;;12.50;7.32;;;30.00;1.00;;;;;;5091883;28;20163;-71
2022/06/23 08:34:53;;;;;;;9.35;8.40;;;30.40;1.00;;;;;;5089763;28;20190;-71
2022/06/23 08:37:22;;;;;;;7.63;6.45;;;31.60;99.90;;;;;;5084196;28;20210;-71
2022/06/23 08:39:54;;;;;;;7.68;6.40;;;32.20;1.00;;;;;;5088747;28;20180;-71
2022/06/23 08:42:22;;;;;;;7.85;6.03;;;33.60;1.00;;;;;;5092213;28;20253;-71
2022/06/23 08:45:12;;;;;;;9.90;6.22;;;34.50;99.90;;;;;;5092274;28;20298;-71
2022/06/23 08:47:58;;;;;;;13.63;6.40;;;33.00;99.90;;;;;;5091091;28;20259;-71
2022/06/23 08:50:34;;;;;;;15.38;6.35;;;32.70;99.90;;;;;;5091971;28;20183;-71
2022/06/23 08:53:12;;;;;;;7.40;5.50;;;32.50;1.00;;;;;;5092147;28;20175;-71
2022/06/23 08:56:02;;;;;;;8.25;6.07;;;32.70;1.00;;;;;;5092020;28;20569;-72
2022/06/23 08:58:49;;;;;;;8.27;6.50;;;31.40;1.00;;;;;;5073795;28;20207;-71
2022/06/23 09:01:22;;;;;;;7.80;6.10;;;30.10;1.00;;;;;;5091694;28;20702;-71
2022/06/23 09:03:57;;;;;;;10.00;6.72;;;30.50;99.90;;;;;;5091918;28;20232;-71
2022/06/23 09:06:45;;;;;;;7.53;5.90;;;30.80;1.00;;;;;;5091715;28;20286;-71
2022/06/23 09:09:31;;;;;;;12.02;6.68;;;30.70;1.00;;;;;;5091363;28;20275;-71
2022/06/23 09:12:03;;;;;;;7.20;5.90;;;30.50;1.00;;;;;;5090790;28;20213;-70
2022/06/23 09:14:56;;;;;;;9.68;5.65;;;30.90;99.90;;;;;;5092675;28;20176;-71
2022/06/23 09:17:49;;;;;;;6.88;4.90;;;31.60;1.00;;;;;;5090994;28;20176;-71
2022/06/23 09:20:43;;;;;;;6.82;5.57;;;31.40;1.00;;;;;;5090833;28;20156;-71
2022/06/23 09:23:15;;;;;;;5.28;4.78;;;31.80;1.00;;;;;;5043573;28;20579;-71
2022/06/23 09:25:59;;;;;;;7.55;5.20;;;30.60;99.90;;;;;;5091855;28;20203;-71
2022/06/23 09:28:32;;;;;;;8.45;5.22;;;31.10;99.90;;;;;;5092489;28;20207;-71
2022/06/23 09:31:18;;;;;;;8.20;5.00;;;31.70;1.00;;;;;;5094525;28;20180;-71
2022/06/23 09:34:34;;;;;;;6.55;4.80;;;32.00;1.00;;;;;;5095216;28;20172;-71
2022/06/23 09:37:08;;;;;;;6.55;4.22;;;32.40;1.00;;;;;;5066902;28;20183;-73
2022/06/23 09:39:53;;;;;;;6.20;5.00;;;33.30;99.90;;;;;;5115064;28;20190;-72
2022/06/23 09:42:33;;;;;;;8.43;4.63;;;33.70;99.90;;;;;;5115132;28;20156;-73
2022/06/23 09:45:02;;;;;;;7.82;4.70;;;33.60;99.90;;;;;;5114524;28;20216;-71
2022/06/23 09:47:55;;;;;;;12.07;5.10;;;33.60;99.90;;;;;;5094200;28;20322;-72
2022/06/23 09:50:43;;;;;;;5.18;4.35;;;33.60;99.90;;;;;;5094354;28;20666;-71
2022/06/23 09:53:20;;;;;;;6.00;4.60;;;33.80;99.90;;;;;;5094524;28;20172;-72
2022/06/23 09:55:50;;;;;;;5.75;4.10;;;31.70;99.90;;;;;;5095183;28;20568;-71
2022/06/23 09:58:33;;;;;;;5.35;4.28;;;31.50;1.00;;;;;;5094727;28;20194;-71
2022/06/23 10:01:17;;;;;;;7.75;4.75;;;31.50;1.00;;;;;;5093644;28;20263;-72
2022/06/23 10:04:01;;;;;;;8.25;4.38;;;31.90;1.00;;;;;;5094409;28;20183;-72
2022/06/23 10:06:36;;;;;;;8.80;5.20;;;32.10;1.00;;;;;;5076134;28;20216;-71
2022/06/23 10:09:11;;;;;;;8.93;4.30;;;33.10;99.90;;;;;;5073828;28;20271;-71
2022/06/23 10:11:55;;;;;;;9.07;4.75;;;33.20;99.90;;;;;;5073631;28;20658;-72
2022/06/23 10:15:14;;;;;;;10.45;5.00;;;32.70;99.90;;;;;;5073863;28;20269;-72
2022/06/23 10:18:28;;;;;;;5.10;4.13;;;33.30;99.90;;;;;;5032150;28;20181;-72
2022/06/23 10:21:34;;;;;;;5.70;4.20;;;32.80;99.90;;;;;;5032455;28;20252;-70
2022/06/23 10:24:28;;;;;;;4.95;4.45;;;31.20;1.00;;;;;;5073725;28;20161;-71
2022/06/23 10:27:05;;;;;;;5.18;4.43;;;30.20;58.90;;;;;;5073479;28;20671;-70
2022/06/23 10:29:48;;;;;;;6.60;4.60;;;30.20;99.90;;;;;;5074073;28;20171;-70
2022/06/23 10:32:44;;;;;;;7.70;4.57;;;30.30;99.90;;;;;;5073881;28;20198;-71
2022/06/23 10:35:19;;;;;;;7.28;4.55;;;30.70;99.90;;;;;;5073382;28;20164;-71
2022/06/23 10:37:53;;;;;;;6.20;4.43;;;31.20;1.00;;;;;;5073318;28;20172;-71
2022/06/23 10:40:57;;;;;;;5.75;4.13;;;31.00;1.00;;;;;;5073966;28;20159;-70
2022/06/23 10:43:53;;;;;;;8.85;4.70;;;29.70;1.00;;;;;;5073348;28;20179;-71
2022/06/23 10:46:35;;;;;;;7.82;4.32;;;30.20;99.90;;;;;;5074001;28;20208;-71
2022/06/23 10:49:44;;;;;;;6.00;4.30;;;31.10;1.00;;;;;;5073267;28;20176;-71
2022/06/23 10:52:31;;;;;;;5.25;4.15;;;31.60;1.00;;;;;;5050289;28;20216;-70
2022/06/23 10:55:14;;;;;;;7.05;4.40;;;31.00;1.00;;;;;;5072556;28;20173;-71
2022/06/23 10:57:39;;;;;;;8.32;4.63;;;30.70;1.00;;;;;;5072896;28;20215;-71
2022/06/23 11:00:19;;;;;;;5.47;3.72;;;30.40;1.00;;;;;;5073530;28;20164;-70
2022/06/23 11:02:59;;;;;;;6.95;3.97;;;30.30;1.00;;;;;;5073603;28;20195;-70
2022/06/23 11:05:41;;;;;;;6.75;3.90;;;30.50;1.00;;;;;;5074604;28;20639;-70
2022/06/23 11:08:44;;;;;;;5.85;3.58;;;30.90;1.00;;;;;;5073169;28;20172;-71
2022/06/23 11:11:36;;;;;;;5.90;3.80;;;31.10;1.00;;;;;;5072874;28;20253;-71
2022/06/23 11:14:17;;;;;;;9.80;4.57;;;30.80;1.00;;;;;;5071703;28;20173;-70
2022/06/23 11:16:52;;;;;;;9.60;4.38;;;30.70;1.00;;;;;;5072703;28;20242;-70
2022/06/23 11:19:39;;;;;;;4.55;4.15;;;30.00;1.00;;;;;;5073067;28;20723;-71
2022/06/23 11:22:17;;;;;;;5.68;4.43;;;29.70;99.90;;;;;;5078849;28;20600;-71
2022/06/23 11:25:09;;;;;;;4.78;3.50;;;30.20;1.00;;;;;;5090864;28;20207;-71
2022/06/23 11:27:54;;;;;;;7.30;3.92;;;29.80;1.00;;;;;;5062821;28;20188;-71
2022/06/23 11:30:29;;;;;;;5.07;3.90;;;29.50;23.70;;;;;;5087971;28;20269;-71
2022/06/23 11:33:31;;;;;;;5.85;4.50;;;29.40;99.90;;;;;;5090393;28;20182;-70
2022/06/23 11:36:22;;;;;;;10.20;4.72;;;29.70;99.90;;;;;;5072046;28;20175;-70
2022/06/23 11:39:29;;;;;;;4.15;3.75;;;29.70;1.00;;;;;;5072475;28;20458;-70
2022/06/23 11:42:23;;;;;;;5.63;3.63;;;29.40;1.00;;;;;;5074650;28;20256;-71
2022/06/23 11:45:05;;;;;;;9.07;4.00;;;29.10;99.90;;;;;;5072304;28;20206;-70
2022/06/23 11:47:33;;;;;;;8.93;3.40;;;28.50;99.90;;;;;;5072492;28;20172;-71
2022/06/23 11:50:21;;;;;;;7.00;4.18;;;29.00;1.00;;;;;;5072326;28;20171;-70
2022/06/23 11:52:59;;;;;;;7.90;3.88;;;29.10;1.00;;;;;;5071057;28;20279;-70
2022/06/23 11:55:48;;;;;;;3.83;3.38;;;29.20;1.00;;;;;;5071585;28;20612;-70
2022/06/23 11:58:25;;;;;;;11.35;3.85;;;29.00;1.00;;;;;;5072179;28;20192;-68
2022/06/23 12:01:06;;;;;;;6.38;3.50;;;29.10;1.00;;;;;;5072270;28;20272;-70
2022/06/23 12:04:03;;;;;;;4.80;3.65;;;29.00;1.00;;;;;;5072112;28;20269;-70
2022/06/23 12:06:59;;;;;;;7.38;4.38;;;28.80;99.90;;;;;;5071421;28;20242;-70
2022/06/23 12:09:53;;;;;;;7.78;4.65;;;29.00;99.90;;;;;;5071765;28;20215;-70
2022/06/23 12:12:20;;;;;;;6.47;3.72;;;29.30;1.00;;;;;;5072133;28;20179;-69
2022/06/23 12:14:46;;;;;;;5.45;4.28;;;29.10;99.90;;;;;;5072280;28;20160;-70
2022/06/23 12:17:17;;;;;;;5.35;3.45;;;29.10;99.90;;;;;;5072109;28;20172;-70
2022/06/23 12:19:51;;;;;;;4.20;3.28;;;29.00;1.00;;;;;;5070939;28;20501;-69
2022/06/23 12:22:21;;;;;;;4.15;3.75;;;28.90;1.00;;;;;;5081712;28;20179;-71
2022/06/23 12:24:50;;;;;;;6.80;3.90;;;28.80;99.90;;;;;;5091072;28;20200;-70
2022/06/23 12:27:31;;;;;;;5.28;3.83;;;28.70;1.00;;;;;;5092713;28;20167;-70
2022/06/23 12:30:11;;;;;;;5.35;3.65;;;29.10;62.20;;;;;;5092619;28;20316;-69
2022/06/23 12:32:51;;;;;;;6.50;3.92;;;29.30;1.00;;;;;;5084147;28;20172;-69
2022/06/23 12:35:27;;;;;;;8.23;3.97;;;29.60;1.00;;;;;;5078372;28;20172;-70
2022/06/23 12:38:03;;;;;;;4.95;4.28;;;29.30;1.00;;;;;;5084033;28;20172;-70
2022/06/23 12:40:44;;;;;;;7.13;4.13;;;29.20;1.00;;;;;;5084106;28;20204;-70
2022/06/23 12:43:45;;;;;;;6.55;4.38;;;29.00;99.90;;;;;;5090619;28;20650;-70
2022/06/23 12:46:37;;;;;;;5.32;3.80;;;28.70;99.90;;;;;;5090879;28;20216;-70
2022/06/23 12:49:12;;;;;;;8.05;4.55;;;28.70;1.00;;;;;;5083086;28;20255;-70
2022/06/23 12:52:00;;;;;;;4.53;4.13;;;28.70;1.00;;;;;;5092006;28;20214;-71
2022/06/23 12:54:38;;;;;;;3.90;3.60;;;28.70;1.00;;;;;;5091260;28;20263;-70
2022/06/23 12:57:10;;;;;;;3.67;3.33;;;28.40;1.00;;;;;;5090445;28;20615;-71
2022/06/23 12:59:43;;;;;;;4.82;2.92;;;28.20;1.00;;;;;;5091627;28;20248;-70
2022/06/23 13:02:34;;;;;;;3.75;3.42;;;28.10;79.70;;;;;;5090909;28;20277;-70
2022/06/23 13:05:18;;;;;;;3.97;3.20;;;28.20;99.90;;;;;;5094344;28;20223;-71
2022/06/23 13:08:09;;;;;;;5.53;3.00;;;28.50;99.90;;;;;;5082688;28;20271;-70
2022/06/23 13:10:52;;;;;;;4.80;3.10;;;28.70;1.00;;;;;;5082344;28;20777;-71
2022/06/23 13:13:45;;;;;;;3.67;3.38;;;28.50;1.00;;;;;;5094678;28;20239;-71
2022/06/23 13:16:21;;;;;;;5.57;3.28;;;28.50;1.00;;;;;;5095483;28;20184;-70
2022/06/23 13:19:09;;;;;;;6.20;3.40;;;28.70;1.00;;;;;;5095111;28;20186;-70
2022/06/23 13:21:37;;;;;;;4.60;3.47;;;28.90;1.00;;;;;;5095486;28;20172;-70
2022/06/23 13:24:08;;;;;;;5.00;3.17;;;29.10;1.00;;;;;;5093809;28;20221;-71
2022/06/23 13:26:44;;;;;;;6.82;3.70;;;29.10;1.00;;;;;;5095409;28;20206;-70
2022/06/23 13:29:15;;;;;;;6.70;3.40;;;29.10;1.00;;;;;;5082438;28;20654;-70
2022/06/23 13:32:12;;;;;;;4.03;3.72;;;29.00;1.00;;;;;;5074511;28;20168;-71
2022/06/23 13:34:55;;;;;;;5.78;3.60;;;29.20;1.00;;;;;;5055376;28;20227;-71
2022/06/23 13:37:30;;;;;;;4.38;3.20;;;29.20;1.00;;;;;;5074409;28;20179;-71
2022/06/23 13:40:33;;;;;;;4.22;3.83;;;28.90;1.00;;;;;;5073431;28;20572;-71
2022/06/23 13:43:04;;;;;;;3.67;3.38;;;28.90;1.00;;;;;;5074770;28;20168;-70
2022/06/23 13:45:45;;;;;;;6.88;3.67;;;29.20;1.00;;;;;;5073054;28;20674;-70
2022/06/23 13:48:16;;;;;;;6.18;3.65;;;29.20;1.00;;;;;;5078188;28;20805;-71
2022/06/23 13:50:57;;;;;;;5.00;3.20;;;29.40;99.90;;;;;;5074176;28;20176;-71
2022/06/23 13:53:44;;;;;;;5.13;3.70;;;29.40;1.00;;;;;;5074325;28;20255;-71
2022/06/23 13:56:37;;;;;;;4.35;3.65;;;29.10;1.00;;;;;;5075390;28;20188;-71
2022/06/23 13:59:11;;;;;;;5.65;3.83;;;29.10;99.90;;;;;;5073199;28;20639;-71
2022/06/23 14:01:56;;;;;;;3.70;3.40;;;29.20;99.90;;;;;;5075723;28;20171;-71
2022/06/23 14:04:35;;;;;;;5.15;3.45;;;29.20;99.90;;;;;;5076961;28;20164;-70
2022/06/23 14:07:20;;;;;;;5.03;3.33;;;29.30;99.90;;;;;;5073476;28;20224;-71